Time;durP1;ratioP1;P1;durP2;ratioP2;P2;SDS_P1;SDS_P2;PMS_P1;PMS_P2;Temp;Humidity;BMP_temperature;BMP_pressure;BME280_temperature;BME280_humidity;BME280_pressure;Samples;Min_cycle;Max_cycle;Signal;HPM_P1;HPM_P2
2023/05/19 00:00:14;;;;;;;10.35;6.20;;;;;;;6.69;72.39;102489.75;4828015;29;19921;-88
2023/05/19 00:02:59;;;;;;;8.60;5.95;;;;;;;6.71;72.91;102495.78;4831653;29;20037;-88
2023/05/19 00:05:29;;;;;;;13.75;6.57;;;;;;;6.67;73.30;102491.72;4834778;29;20115;-87
2023/05/19 00:07:57;;;;;;;9.82;6.13;;;;;;;6.70;73.53;102495.94;4827909;29;20955;-87
2023/05/19 00:10:23;;;;;;;11.82;6.50;;;;;;;6.69;73.74;102500.47;4816677;29;20503;-88
2023/05/19 00:13:04;;;;;;;;;;;;;;;6.63;74.18;102498.28;4824911;29;20074;-87
2023/05/19 00:15:29;;;;;;;10.73;5.85;;;;;;;6.57;74.63;102491.63;4833049;29;20020;-87
2023/05/19 00:17:55;;;;;;;;;;;;;;;6.55;75.35;102495.41;4834847;29;20022;-86
2023/05/19 00:20:21;;;;;;;12.85;5.90;;;;;;;6.53;75.69;102493.69;4825836;29;19985;-82
2023/05/19 00:22:46;;;;;;;;;;;;;;;6.50;75.49;102485.97;4835059;29;20027;-82
2023/05/19 00:25:11;;;;;;;9.43;6.00;;;;;;;6.48;76.01;102492.41;4833743;29;19928;-82
2023/05/19 00:27:36;;;;;;;;;;;;;;;6.47;76.16;102494.25;4828635;29;20031;-82
2023/05/19 00:30:02;;;;;;;13.80;6.63;;;;;;;6.46;76.31;102491.66;4830366;29;19946;-82
2023/05/19 00:32:27;;;;;;;;;;;;;;;6.39;76.72;102493.19;4831059;29;20054;-82
2023/05/19 00:34:52;;;;;;;11.43;5.83;;;;;;;6.38;76.81;102492.31;4833525;29;19967;-81
2023/05/19 00:37:18;;;;;;;;;;;;;;;6.35;77.74;102492.59;4829030;29;20538;-81
2023/05/19 00:39:43;;;;;;;9.33;6.03;;;;;;;6.33;77.73;102494.56;4838458;29;19928;-81
2023/05/19 00:42:08;;;;;;;;;;;;;;;6.33;78.01;102497.22;4839133;29;20046;-81
2023/05/19 00:44:36;;;;;;;13.80;6.90;;;;;;;6.33;78.41;102487.38;4817810;29;19951;-81
2023/05/19 00:47:02;;;;;;;11.65;6.25;;;;;;;6.29;78.62;102493.09;4801768;29;20050;-81
2023/05/19 00:49:27;;;;;;;12.55;6.22;;;;;;;6.27;78.62;102495.06;4837191;29;20045;-81
2023/05/19 00:51:52;;;;;;;13.68;6.60;;;;;;;6.25;79.31;102486.31;4832823;29;20046;-81
2023/05/19 00:54:18;;;;;;;13.70;6.47;;;;;;;6.18;79.16;102476.09;4806148;29;20050;-81
2023/05/19 00:56:43;;;;;;;10.15;5.88;;;;;;;6.21;79.65;102480.38;4814226;29;20030;-82
2023/05/19 00:59:08;;;;;;;;;;;;;;;6.15;80.09;102479.06;4831967;29;20030;-81
2023/05/19 01:01:34;;;;;;;14.23;6.40;;;;;;;6.13;79.91;102470.31;4837278;29;20019;-81
2023/05/19 01:03:59;;;;;;;;;;;;;;;6.09;80.39;102476.88;4838163;29;20034;-81
2023/05/19 01:06:26;;;;;;;9.30;5.77;;;;;;;6.04;80.96;102473.72;4832203;29;20277;-81
2023/05/19 01:08:52;;;;;;;9.95;6.35;;;;;;;6.05;80.86;102478.97;4834324;29;20042;-81
2023/05/19 01:11:17;;;;;;;;;;;;;;;6.02;80.94;102476.56;4837940;29;20033;-81
2023/05/19 01:13:45;;;;;;;13.07;6.20;;;;;;;6.01;81.07;102477.53;4823518;29;20789;-83
2023/05/19 01:16:29;;;;;;;12.63;6.20;;;;;;;5.99;81.94;102473.25;4804228;29;20034;-83
2023/05/19 01:19:20;;;;;;;9.88;6.05;;;;;;;5.99;81.90;102479.44;4815650;29;20042;-83
2023/05/19 01:22:11;;;;;;;11.25;6.13;;;;;;;5.96;82.07;102471.66;4810351;29;20050;-83
2023/05/19 01:25:16;;;;;;;11.40;6.45;;;;;;;5.94;82.32;102473.59;4835547;29;20144;-83
2023/05/19 01:28:03;;;;;;;14.50;6.28;;;;;;;5.92;82.15;102473.75;4828015;29;20504;-82
2023/05/19 01:30:30;;;;;;;11.73;6.57;;;;;;;5.89;82.88;102473.16;4820387;29;20030;-83
2023/05/19 01:33:00;;;;;;;12.50;6.47;;;;;;;5.80;83.01;102461.41;4815567;29;20046;-82
2023/05/19 01:35:26;;;;;;;11.20;6.53;;;;;;;5.77;83.14;102469.66;4827984;29;20028;-81
2023/05/19 01:37:55;;;;;;;9.88;6.60;;;;;;;5.78;83.23;102471.38;4836322;29;20410;-81
2023/05/19 01:40:30;;;;;;;13.18;6.25;;;;;;;5.74;83.14;102469.91;4830324;29;20018;-81
2023/05/19 01:42:57;;;;;;;10.88;5.78;;;;;;;5.67;83.71;102468.69;4832392;29;20042;-81
2023/05/19 01:45:22;;;;;;;10.75;6.18;;;;;;;5.64;83.37;102471.66;4832223;29;20436;-81
2023/05/19 01:48:05;;;;;;;13.05;6.47;;;;;;;5.55;83.98;102471.41;4832358;29;20037;-81
2023/05/19 01:50:30;;;;;;;9.63;6.28;;;;;;;5.44;84.04;102474.94;4825270;29;20034;-81
2023/05/19 01:52:56;;;;;;;12.07;6.45;;;;;;;5.42;84.56;102478.69;4834264;29;20403;-81
2023/05/19 01:55:22;;;;;;;11.68;6.55;;;;;;;5.42;84.59;102484.03;4837061;29;20116;-81
2023/05/19 01:58:02;;;;;;;;;;;;;;;5.35;85.30;102474.81;4836088;29;20031;-81
2023/05/19 02:00:57;;;;;;;10.55;6.10;;;;;;;5.31;85.05;102476.88;4832184;29;20379;-81
2023/05/19 02:03:47;;;;;;;10.57;5.88;;;;;;;5.24;85.05;102479.19;4794833;29;20072;-81
2023/05/19 02:06:34;;;;;;;13.80;7.35;;;;;;;5.19;86.07;102477.88;4833683;29;20486;-81
2023/05/19 02:08:59;;;;;;;11.00;6.75;;;;;;;5.21;85.96;102482.09;4833197;29;20543;-81
2023/05/19 02:11:44;;;;;;;10.55;6.70;;;;;;;5.17;86.61;102483.31;4825199;29;20067;-81
2023/05/19 02:14:16;;;;;;;12.40;7.18;;;;;;;5.19;86.48;102478.69;4815362;29;20044;-81
2023/05/19 02:16:44;;;;;;;12.20;7.15;;;;;;;5.16;86.60;102481.59;4802717;29;20650;-82
2023/05/19 02:19:19;;;;;;;12.63;7.22;;;;;;;5.18;86.80;102477.00;4819646;29;20791;-82
2023/05/19 02:21:45;;;;;;;12.47;7.50;;;;;;;5.15;86.41;102469.22;4836760;29;20038;-82
2023/05/19 02:24:10;;;;;;;;;;;;;;;5.08;86.99;102470.69;4836509;29;20030;-82
2023/05/19 02:26:35;;;;;;;13.90;7.00;;;;;;;5.04;86.47;102464.72;4836541;29;19921;-82
2023/05/19 02:29:04;;;;;;;11.15;7.28;;;;;;;4.97;86.37;102461.69;4832435;29;20372;-82
2023/05/19 02:31:29;;;;;;;11.95;6.82;;;;;;;4.97;86.95;102455.53;4831596;29;20483;-82
2023/05/19 02:33:54;;;;;;;10.65;7.00;;;;;;;4.99;87.18;102453.59;4837930;29;20038;-82
2023/05/19 02:36:20;;;;;;;;;;;;;;;4.94;87.25;102451.25;4831031;29;20034;-82
2023/05/19 02:38:47;;;;;;;12.77;7.23;;;;;;;4.92;87.68;102450.56;4826883;29;20369;-82
2023/05/19 02:41:13;;;;;;;11.50;6.85;;;;;;;4.87;88.09;102442.03;4826217;29;20303;-82
2023/05/19 02:43:38;;;;;;;12.27;7.63;;;;;;;4.97;88.16;102456.34;4830710;29;20030;-82
2023/05/19 02:46:04;;;;;;;12.47;7.80;;;;;;;4.93;87.72;102446.91;4836669;29;20029;-82
2023/05/19 02:48:29;;;;;;;12.17;7.00;;;;;;;4.92;88.74;102445.22;4830313;29;20311;-82
2023/05/19 02:50:54;;;;;;;14.45;7.53;;;;;;;4.85;88.49;102449.31;4834200;29;20290;-82
2023/05/19 02:53:20;;;;;;;11.70;7.03;;;;;;;4.89;88.90;102441.91;4828810;29;20537;-82
2023/05/19 02:55:45;;;;;;;14.57;8.23;;;;;;;4.87;88.39;102452.72;4829704;29;20304;-82
2023/05/19 02:58:10;;;;;;;9.25;7.05;;;;;;;4.83;88.15;102445.91;4830477;29;20052;-82
2023/05/19 03:00:36;;;;;;;16.00;7.70;;;;;;;4.85;88.87;102452.00;4834364;29;20029;-82
2023/05/19 03:03:03;;;;;;;14.77;7.28;;;;;;;4.75;88.34;102459.03;4814247;29;20482;-82
2023/05/19 03:05:31;;;;;;;15.00;7.80;;;;;;;4.78;88.90;102448.09;4838204;29;20045;-82
2023/05/19 03:07:57;;;;;;;13.75;8.00;;;;;;;4.74;88.82;102451.97;4837559;29;20429;-81
2023/05/19 03:10:22;;;;;;;14.00;7.80;;;;;;;4.68;88.62;102454.16;4831245;29;20069;-83
2023/05/19 03:12:47;;;;;;;13.97;7.50;;;;;;;4.65;89.00;102449.03;4835681;29;20310;-84
2023/05/19 03:15:13;;;;;;;11.60;7.93;;;;;;;4.61;89.20;102455.56;4833722;29;20398;-82
2023/05/19 03:17:39;;;;;;;14.15;8.05;;;;;;;4.61;88.88;102458.25;4851165;29;20318;-82
2023/05/19 03:20:05;;;;;;;14.00;7.75;;;;;;;4.64;89.68;102454.50;4840485;29;20490;-82
2023/05/19 03:22:31;;;;;;;13.98;8.30;;;;;;;4.65;89.15;102458.88;4829152;29;20022;-82
2023/05/19 03:24:57;;;;;;;13.80;8.32;;;;;;;4.62;89.89;102453.78;4834303;29;20363;-82
2023/05/19 03:27:22;;;;;;;15.40;7.45;;;;;;;4.63;89.32;102450.97;4835309;29;20065;-82
2023/05/19 03:29:48;;;;;;;16.20;7.82;;;;;;;4.62;90.11;102451.94;4832319;29;20052;-82
2023/05/19 03:32:13;;;;;;;16.77;8.47;;;;;;;4.60;89.67;102451.22;4830905;29;20041;-82
2023/05/19 03:34:38;;;;;;;14.37;8.17;;;;;;;4.64;89.96;102451.84;4829216;29;20329;-82
2023/05/19 03:37:04;;;;;;;18.10;7.80;;;;;;;4.62;90.28;102451.94;4834660;29;20033;-82
2023/05/19 03:39:29;;;;;;;15.63;8.47;;;;;;;4.55;90.40;102456.06;4831040;29;20303;-82
2023/05/19 03:41:55;;;;;;;13.50;7.72;;;;;;;4.53;89.96;102455.31;4825496;29;20062;-82
2023/05/19 03:44:20;;;;;;;;;;;;;;;4.48;89.95;102454.81;4828618;29;20501;-82
2023/05/19 03:46:45;;;;;;;14.60;7.80;;;;;;;4.50;90.36;102455.56;4827597;29;20448;-84
2023/05/19 03:49:11;;;;;;;15.23;6.80;;;;;;;4.46;89.53;102452.28;4827586;29;20564;-82
2023/05/19 03:51:36;;;;;;;16.57;8.40;;;;;;;4.50;89.83;102456.41;4824128;29;20303;-81
2023/05/19 03:54:02;;;;;;;17.70;8.48;;;;;;;4.52;90.68;102459.78;4816953;29;20045;-82
2023/05/19 03:56:27;;;;;;;15.25;8.02;;;;;;;4.55;90.55;102458.72;4817910;29;20030;-82
2023/05/19 03:58:59;;;;;;;18.25;8.90;;;;;;;4.58;90.72;102463.84;4813181;29;20113;-82
2023/05/19 04:01:27;;;;;;;15.20;8.02;;;;;;;4.62;90.69;102459.94;4813351;29;20117;-82
2023/05/19 04:03:52;;;;;;;17.25;8.80;;;;;;;4.69;90.62;102461.19;4818345;29;20049;-82
2023/05/19 04:06:18;;;;;;;14.27;8.13;;;;;;;4.68;90.27;102459.47;4816536;29;20042;-82
2023/05/19 04:08:43;;;;;;;16.05;8.20;;;;;;;4.73;90.54;102467.13;4814242;29;20307;-82
2023/05/19 04:11:08;;;;;;;14.97;8.20;;;;;;;4.81;89.57;102477.19;4821694;29;20089;-80
2023/05/19 04:13:34;;;;;;;;;;;;;;;4.88;89.79;102473.09;4822599;29;20038;-86
2023/05/19 04:16:00;;;;;;;16.95;8.38;;;;;;;4.96;90.05;102470.66;4817847;29;19920;-86
2023/05/19 04:18:25;;;;;;;15.32;8.35;;;;;;;5.03;89.61;102473.69;4800195;29;20031;-86
2023/05/19 04:20:50;;;;;;;15.20;7.70;;;;;;;5.13;88.88;102473.84;4812524;29;20841;-86
2023/05/19 04:23:16;;;;;;;11.02;7.38;;;;;;;5.22;88.21;102478.47;4818199;29;20083;-82
2023/05/19 04:25:41;;;;;;;;;;;;;;;5.28;88.03;102472.66;4815511;29;20092;-89
2023/05/19 04:28:09;;;;;;;12.95;7.65;;;;;;;5.37;87.95;102476.41;4799987;29;19978;-89
2023/05/19 04:30:52;;;;;;;11.85;7.25;;;;;;;5.46;87.75;102480.16;4825652;24;20496;-88
2023/05/19 04:33:23;;;;;;;13.15;8.13;;;;;;;5.58;86.82;102473.81;4822699;29;20050;-89
2023/05/19 04:36:10;;;;;;;14.07;7.53;;;;;;;5.71;86.17;102478.16;4817338;29;20453;-86
2023/05/19 04:38:36;;;;;;;15.90;7.93;;;;;;;5.81;85.96;102479.13;4820885;29;20036;-89
2023/05/19 04:41:02;;;;;;;;;;;;;;;5.88;85.04;102474.97;4830856;29;20094;-93
2023/05/19 04:43:27;;;;;;;13.02;7.00;;;;;;;6.01;84.43;102479.34;4825042;29;20318;-87
2023/05/19 04:45:52;;;;;;;;;;;;;;;6.16;83.79;102472.75;4822123;29;20398;-87
2023/05/19 04:48:20;;;;;;;13.02;7.55;;;;;;;6.26;83.32;102472.81;4806502;29;19921;-87
2023/05/19 04:50:47;;;;;;;12.40;7.20;;;;;;;6.40;82.96;102468.13;4819416;29;20099;-86
2023/05/19 04:53:13;;;;;;;12.70;7.55;;;;;;;6.57;81.89;102472.03;4816446;29;20047;-86
2023/05/19 04:55:38;;;;;;;;;;;;;;;6.62;81.26;102472.50;4825276;29;20054;-86
2023/05/19 04:58:04;;;;;;;13.90;7.05;;;;;;;6.71;80.76;102468.19;4822716;29;19974;-86
2023/05/19 05:00:29;;;;;;;;;;;;;;;6.82;80.42;102466.31;4820479;29;20055;-87
2023/05/19 05:02:56;;;;;;;10.77;6.85;;;;;;;6.98;79.97;102459.63;4818783;29;19969;-86
2023/05/19 05:05:21;;;;;;;11.20;6.85;;;;;;;7.48;79.10;102466.00;4820172;29;20041;-87
2023/05/19 05:07:46;;;;;;;;;;;;;;;8.42;74.81;102462.84;4823722;29;20038;-87
2023/05/19 05:10:12;;;;;;;12.67;7.17;;;;;;;9.34;70.09;102465.88;4822812;29;20261;-87
2023/05/19 05:12:56;;;;;;;11.00;6.20;;;;;;;10.47;67.17;102472.78;4816185;29;20027;-86
2023/05/19 05:15:23;;;;;;;10.00;6.65;;;;;;;11.09;63.68;102476.38;4825774;29;20047;-87
2023/05/19 05:17:48;;;;;;;13.07;7.00;;;;;;;11.44;61.60;102464.56;4829611;29;20113;-87
2023/05/19 05:20:19;;;;;;;10.32;6.03;;;;;;;11.72;60.61;102471.56;4824029;29;20423;-87
2023/05/19 05:22:48;;;;;;;12.40;6.65;;;;;;;11.71;60.48;102467.16;5070157;24;20054;-87
2023/05/19 05:29:09;;;;;;;7.55;6.20;;;;;;;10.44;63.62;102473.91;4837355;29;20405;-86
2023/05/19 05:31:50;;;;;;;11.88;6.43;;;;;;;9.97;65.51;102468.75;4838832;29;20059;-86
2023/05/19 05:34:30;;;;;;;10.73;6.28;;;;;;;9.75;66.33;102470.03;4832435;29;20439;-86
2023/05/19 05:36:56;;;;;;;10.88;6.30;;;;;;;9.97;65.86;102480.34;4838136;29;20061;-86
2023/05/19 05:39:30;;;;;;;10.80;6.57;;;;;;;10.12;65.35;102477.97;4836959;29;20022;-86
2023/05/19 05:42:48;;;;;;;10.88;6.65;;;;;;;10.56;63.68;102473.69;4838687;29;20052;-85
2023/05/19 05:45:14;;;;;;;9.85;6.93;;;;;;;10.69;62.54;102471.41;4912736;24;20050;-87
2023/05/19 05:47:45;;;;;;;12.23;6.18;;;;;;;10.80;62.76;102469.44;4830703;29;20107;-85
2023/05/19 05:50:11;;;;;;;9.45;5.90;;;;;;;11.32;61.77;102466.69;4808998;29;20030;-85
2023/05/19 05:55:04;;;;;;;11.18;6.78;;;;;;;11.97;60.20;102464.34;4990765;24;20070;-87
2023/05/19 05:57:29;;;;;;;15.45;6.30;;;;;;;12.49;57.94;102465.94;4831233;29;20043;-86
2023/05/19 05:59:58;;;;;;;8.68;5.97;;;;;;;12.67;57.44;102467.59;4826258;24;20069;-86
2023/05/19 06:02:23;;;;;;;11.45;6.13;;;;;;;13.03;56.10;102470.72;4818278;29;20038;-86
2023/05/19 06:04:55;;;;;;;8.82;6.07;;;;;;;13.61;54.36;102465.13;4871619;24;20068;-85
2023/05/19 06:07:49;;;;;;;13.32;6.25;;;;;;;14.57;52.32;102472.03;4839221;29;20415;-84
2023/05/19 06:10:17;;;;;;;9.85;5.75;;;;;;;15.78;48.94;102470.97;4820251;29;20364;-82
2023/05/19 06:12:42;;;;;;;7.68;5.90;;;;;;;16.56;46.95;102477.59;4834505;29;21061;-81
2023/05/19 06:15:23;;;;;;;9.60;5.65;;;;;;;17.19;43.93;102487.63;4832151;29;20033;-84
2023/05/19 06:17:49;;;;;;;10.90;5.38;;;;;;;17.68;42.93;102478.41;4831976;29;20042;-84
2023/05/19 06:20:15;;;;;;;9.70;5.22;;;;;;;18.10;42.22;102481.03;4837058;29;20087;-84
2023/05/19 06:22:40;;;;;;;8.45;5.47;;;;;;;18.30;41.12;102478.34;4838130;29;20018;-86
2023/05/19 06:25:07;;;;;;;9.25;4.68;;;;;;;18.28;40.53;102472.28;4843075;29;20132;-84
2023/05/19 06:27:39;;;;;;;8.02;5.00;;;;;;;18.50;40.75;102472.06;4833998;29;20026;-84
2023/05/19 06:30:07;;;;;;;8.80;4.95;;;;;;;18.48;40.49;102474.16;4834556;29;20101;-84
2023/05/19 06:32:32;;;;;;;8.27;4.97;;;;;;;18.49;40.26;102470.38;4842381;29;20113;-85
2023/05/19 06:34:58;;;;;;;9.45;5.43;;;;;;;18.44;40.95;102476.44;4835717;29;20033;-84
2023/05/19 06:37:23;;;;;;;7.28;4.90;;;;;;;17.85;41.43;102475.31;4847748;29;20343;-85
2023/05/19 06:39:51;;;;;;;8.98;5.15;;;;;;;17.65;41.81;102472.53;4832914;29;20111;-84
2023/05/19 06:42:21;;;;;;;7.38;5.30;;;;;;;17.62;41.17;102471.06;4816734;29;20117;-85
2023/05/19 06:44:50;;;;;;;9.15;5.00;;;;;;;17.51;42.07;102471.66;4836997;29;20399;-85
2023/05/19 06:47:16;;;;;;;9.93;5.30;;;;;;;17.83;41.42;102472.81;4834034;29;20038;-85
2023/05/19 06:49:41;;;;;;;7.00;4.60;;;;;;;17.82;42.24;102475.75;4837925;29;20384;-85
2023/05/19 06:52:07;;;;;;;5.63;4.82;;;;;;;18.11;40.78;102471.00;4829359;29;20061;-84
2023/05/19 06:54:32;;;;;;;7.05;5.20;;;;;;;18.96;39.11;102480.41;4840440;29;20022;-85
2023/05/19 06:56:58;;;;;;;7.15;5.10;;;;;;;19.12;38.48;102479.13;4838589;29;20708;-85
2023/05/19 06:59:23;;;;;;;9.60;4.90;;;;;;;19.64;38.04;102479.09;4838139;29;20033;-86
2023/05/19 07:01:48;;;;;;;10.82;5.15;;;;;;;19.96;37.80;102474.53;4839569;29;20038;-85
2023/05/19 07:04:17;;;;;;;9.20;4.85;;;;;;;19.72;37.79;102473.41;4835522;29;20054;-85
2023/05/19 07:06:42;;;;;;;9.73;4.80;;;;;;;19.76;36.79;102477.38;4834398;29;20389;-86
2023/05/19 07:09:07;;;;;;;7.25;4.47;;;;;;;19.74;36.88;102475.91;4836612;29;20038;-86
2023/05/19 07:11:33;;;;;;;5.57;4.90;;;;;;;18.85;39.48;102469.09;4831855;29;20547;-85
2023/05/19 07:13:58;;;;;;;7.88;4.65;;;;;;;20.39;36.25;102467.47;4832214;29;20072;-85
2023/05/19 07:16:24;;;;;;;8.52;4.78;;;;;;;20.55;35.69;102463.34;4833399;29;20409;-85
2023/05/19 07:18:50;;;;;;;8.27;4.63;;;;;;;21.37;34.47;102466.91;4836956;29;20065;-85
2023/05/19 07:21:15;;;;;;;8.18;4.50;;;;;;;21.53;33.98;102464.59;4835488;29;20095;-86
2023/05/19 07:23:41;;;;;;;8.90;4.22;;;;;;;22.29;32.20;102475.06;4837364;29;20038;-86
2023/05/19 07:26:06;;;;;;;7.95;4.30;;;;;;;22.31;31.76;102475.69;4831945;29;20041;-86
2023/05/19 07:28:34;;;;;;;7.15;3.95;;;;;;;22.04;32.60;102465.16;4838448;29;20212;-83
2023/05/19 07:31:00;;;;;;;7.45;3.63;;;;;;;23.11;31.30;102474.25;4836966;29;20030;-85
2023/05/19 07:33:25;;;;;;;9.48;3.92;;;;;;;23.89;30.03;102476.63;4840145;29;20048;-87
2023/05/19 07:35:58;;;;;;;5.82;3.50;;;;;;;24.17;30.25;102463.09;4831623;29;20033;-87
2023/05/19 07:38:24;;;;;;;6.28;3.47;;;;;;;23.95;29.93;102466.53;4838822;29;20483;-83
2023/05/19 07:40:49;;;;;;;5.82;2.92;;;;;;;23.69;29.10;102460.56;4835008;29;20089;-85
2023/05/19 07:43:14;;;;;;;5.93;2.90;;;;;;;24.52;28.37;102459.22;4841718;29;20041;-84
2023/05/19 07:45:40;;;;;;;8.40;3.30;;;;;;;24.55;27.83;102453.19;4837873;29;20042;-84
2023/05/19 07:48:06;;;;;;;6.15;3.25;;;;;;;24.15;27.54;102454.25;4840564;29;20056;-84
2023/05/19 07:50:31;;;;;;;6.93;3.30;;;;;;;22.77;29.52;102452.06;4837017;29;20050;-88
2023/05/19 07:53:02;;;;;;;7.47;3.10;;;;;;;22.83;30.27;102450.31;4841981;29;20554;-88
2023/05/19 07:55:30;;;;;;;7.53;2.90;;;;;;;22.89;29.79;102448.50;4841335;29;20030;-86
2023/05/19 07:57:56;;;;;;;4.63;2.50;;;;;;;23.73;28.08;102453.50;4841334;29;20049;-84
2023/05/19 08:00:21;;;;;;;6.28;2.80;;;;;;;22.69;30.60;102447.78;4837223;29;20061;-83
2023/05/19 08:02:47;;;;;;;6.32;2.42;;;;;;;22.96;29.35;102454.69;4838492;29;20029;-85
2023/05/19 08:05:12;;;;;;;5.80;2.72;;;;;;;23.27;29.00;102452.63;4841008;29;20082;-83
2023/05/19 08:07:37;;;;;;;5.47;2.72;;;;;;;24.13;28.31;102446.22;4840919;29;20034;-83
2023/05/19 08:10:03;;;;;;;4.72;2.70;;;;;;;24.38;27.77;102448.53;4836175;29;20423;-83
2023/05/19 08:12:28;;;;;;;6.05;2.70;;;;;;;24.86;26.54;102448.16;4836235;29;20402;-82
2023/05/19 08:14:54;;;;;;;5.45;2.45;;;;;;;24.29;26.72;102450.06;4832517;29;20060;-82
2023/05/19 08:17:19;;;;;;;4.95;2.38;;;;;;;24.92;25.61;102449.88;4837539;29;20111;-82
2023/05/19 08:19:45;;;;;;;7.20;2.42;;;;;;;25.47;25.12;102449.19;4837177;29;20042;-83
2023/05/19 08:22:10;;;;;;;4.85;2.38;;;;;;;26.13;24.07;102443.47;4833877;29;20042;-83
2023/05/19 08:24:36;;;;;;;5.65;1.98;;;;;;;26.70;23.50;102448.53;4840295;29;20037;-84
2023/05/19 08:27:01;;;;;;;5.85;2.30;;;;;;;26.91;23.06;102441.19;4834262;29;20038;-83
2023/05/19 08:29:26;;;;;;;6.40;2.65;;;;;;;26.52;22.79;102438.75;4831415;29;20505;-83
2023/05/19 08:31:52;;;;;;;7.40;2.55;;;;;;;26.16;24.19;102442.94;4838040;29;20419;-83
2023/05/19 08:34:18;;;;;;;6.18;2.38;;;;;;;25.54;23.48;102441.53;4838906;29;20033;-83
2023/05/19 08:36:46;;;;;;;6.10;2.53;;;;;;;26.00;24.08;102435.59;4838544;29;20188;-81
2023/05/19 08:39:13;;;;;;;5.38;1.98;;;;;;;25.03;25.15;102430.75;4835043;29;20038;-84
2023/05/19 08:41:38;;;;;;;5.90;2.50;;;;;;;25.95;24.48;102430.03;4836559;29;20053;-84
2023/05/19 08:44:03;;;;;;;5.72;2.60;;;;;;;24.64;25.99;102424.16;4845247;29;20122;-86
2023/05/19 08:46:29;;;;;;;5.80;2.20;;;;;;;24.95;25.46;102418.25;4824737;29;20040;-85
2023/05/19 08:48:58;;;;;;;8.07;2.42;;;;;;;26.12;23.46;102410.63;4841550;29;20069;-87
2023/05/19 08:51:49;;;;;;;6.10;2.40;;;;;;;26.39;23.17;102418.81;4823948;29;20034;-89
2023/05/19 08:54:15;;;;;;;5.15;2.00;;;;;;;26.59;22.10;102406.22;4840908;29;20127;-87
2023/05/19 08:56:46;;;;;;;5.95;2.28;;;;;;;26.82;21.78;102402.19;4839849;29;20038;-88
2023/05/19 08:59:16;;;;;;;4.85;1.95;;;;;;;26.93;22.26;102411.38;4825134;29;20054;-87
2023/05/19 09:01:45;;;;;;;5.93;1.92;;;;;;;26.74;22.27;102403.53;4830520;29;20103;-87
2023/05/19 09:04:10;;;;;;;4.65;2.00;;;;;;;26.24;22.60;102411.25;4841441;29;20026;-87
2023/05/19 09:06:35;;;;;;;5.28;2.00;;;;;;;25.16;23.75;102408.28;4837615;29;20058;-88
2023/05/19 09:09:02;;;;;;;5.68;2.40;;;;;;;22.60;27.30;102402.59;4838022;29;20037;-88
2023/05/19 09:11:28;;;;;;;5.13;2.00;;;;;;;23.01;27.30;102397.13;4822762;29;20034;-86
2023/05/19 09:13:59;;;;;;;5.95;2.20;;;;;;;24.17;25.46;102392.38;4838149;29;20034;-87
2023/05/19 09:16:25;;;;;;;4.70;2.03;;;;;;;24.71;25.16;102390.13;4845279;29;20045;-88
2023/05/19 09:18:57;;;;;;;7.38;2.38;;;;;;;25.52;23.93;102383.88;4822905;29;20046;-88
2023/05/19 09:21:29;;;;;;;5.18;2.00;;;;;;;25.29;24.26;102385.00;4835938;29;20034;-88
2023/05/19 09:23:55;;;;;;;5.32;2.33;;;;;;;25.91;23.72;102390.28;4840046;29;20046;-88
2023/05/19 09:26:22;;;;;;;4.80;2.20;;;;;;;25.41;23.53;102390.38;4838258;29;20030;-88
2023/05/19 09:28:47;;;;;;;5.15;2.10;;;;;;;26.37;22.67;102387.88;4837698;29;20049;-88
2023/05/19 09:31:13;;;;;;;8.27;2.03;;;;;;;27.52;21.85;102384.44;4838655;29;20030;-87
2023/05/19 09:33:49;;;;;;;7.50;2.33;;;;;;;27.34;21.24;102383.84;5031467;24;20064;-88
2023/05/19 09:36:24;;;;;;;5.63;1.92;;;;;;;26.61;22.59;102385.50;4825937;29;20380;-87
2023/05/19 09:38:50;;;;;;;4.55;2.08;;;;;;;25.82;22.74;102389.94;4843252;29;20033;-88
2023/05/19 09:41:25;;;;;;;7.28;2.30;;;;;;;26.35;22.77;102384.53;4831092;29;20042;-88
2023/05/19 09:43:54;;;;;;;5.03;2.13;;;;;;;27.32;22.05;102375.00;4823820;29;20026;-88
2023/05/19 09:46:20;;;;;;;4.20;2.03;;;;;;;27.52;21.74;102378.91;4842785;29;20037;-89
2023/05/19 09:49:23;;;;;;;5.53;2.53;;;;;;;27.69;21.71;102390.53;4823425;29;20042;-87
2023/05/19 09:52:09;;;;;;;5.78;2.30;;;;;;;26.22;22.27;102385.00;4835534;29;20033;-88
2023/05/19 09:54:45;;;;;;;6.82;2.30;;;;;;;27.03;21.94;102383.75;4832304;29;20042;-88
2023/05/19 09:57:27;;;;;;;6.63;2.13;;;;;;;26.48;22.76;102383.22;4840838;29;20141;-87
2023/05/19 09:59:55;;;;;;;4.82;2.45;;;;;;;25.17;24.36;102371.38;4848116;29;20037;-87
2023/05/19 10:02:29;;;;;;;5.93;2.22;;;;;;;25.22;23.92;102363.16;4831683;29;20063;-86
2023/05/19 10:04:58;;;;;;;6.47;2.63;;;;;;;25.13;24.71;102375.72;4857873;29;20480;-86
2023/05/19 10:07:23;;;;;;;5.50;2.15;;;;;;;25.11;24.71;102366.88;4805497;29;20723;-86
2023/05/19 10:09:49;;;;;;;5.47;2.30;;;;;;;25.61;24.75;102358.56;4823576;29;20030;-86
2023/05/19 10:12:14;;;;;;;6.88;2.40;;;;;;;25.18;25.19;102366.69;4836346;29;20065;-86
2023/05/19 10:14:39;;;;;;;4.43;2.50;;;;;;;24.59;25.81;102366.25;4822727;29;20085;-87
2023/05/19 10:17:05;;;;;;;5.32;2.60;;;;;;;24.12;25.73;102355.69;4823669;29;20040;-84
2023/05/19 10:19:30;;;;;;;6.35;2.63;;;;;;;24.68;25.69;102353.72;4821815;29;20101;-84
2023/05/19 10:21:55;;;;;;;5.95;2.70;;;;;;;26.22;23.28;102347.19;4837162;29;20040;-85
2023/05/19 10:24:21;;;;;;;5.47;2.30;;;;;;;25.45;24.13;102354.88;4838122;29;20459;-85
2023/05/19 10:26:57;;;;;;;6.40;3.33;;;;;;;25.17;24.03;102367.78;4839562;29;20036;-86
2023/05/19 10:29:26;;;;;;;6.25;2.20;;;;;;;26.33;23.77;102353.59;4827741;29;20040;-85
2023/05/19 10:31:51;;;;;;;6.03;2.38;;;;;;;25.45;24.68;102347.41;4815829;29;20555;-85
2023/05/19 10:34:22;;;;;;;5.75;2.20;;;;;;;26.25;24.05;102340.31;4833862;29;20405;-84
2023/05/19 10:37:02;;;;;;;5.13;2.08;;;;;;;26.17;23.13;102342.47;4821511;29;20377;-86
2023/05/19 10:39:34;;;;;;;6.80;2.42;;;;;;;26.70;22.85;102336.09;4803835;29;20226;-85
2023/05/19 10:42:03;;;;;;;4.93;2.40;;;;;;;24.90;25.13;102341.03;4816685;29;20026;-85
2023/05/19 10:44:45;;;;;;;5.35;2.53;;;;;;;23.61;26.39;102334.50;4823548;29;20090;-85
2023/05/19 10:47:23;;;;;;;4.20;2.42;;;;;;;24.74;24.97;102334.50;4818991;29;20054;-83
2023/05/19 10:49:48;;;;;;;6.28;2.47;;;;;;;26.08;24.08;102324.75;4818537;29;20507;-83
2023/05/19 10:52:23;;;;;;;6.93;2.53;;;;;;;26.51;23.12;102335.75;4804848;29;20128;-82
2023/05/19 10:54:50;;;;;;;5.97;2.42;;;;;;;26.28;24.00;102335.09;4822775;29;20114;-83
2023/05/19 10:57:16;;;;;;;6.13;2.80;;;;;;;25.57;23.93;102341.72;4802166;29;20152;-83
2023/05/19 10:59:43;;;;;;;6.10;2.50;;;;;;;25.74;23.58;102325.06;4818850;29;20050;-83
2023/05/19 11:02:08;;;;;;;5.85;2.67;;;;;;;27.37;22.31;102333.50;4817597;29;20026;-83
2023/05/19 11:04:49;;;;;;;6.68;2.35;;;;;;;26.69;22.58;102323.38;4819381;29;20491;-83
2023/05/19 11:07:20;;;;;;;6.35;2.53;;;;;;;26.58;22.65;102316.16;4814236;29;20039;-83
2023/05/19 11:09:50;;;;;;;5.68;2.13;;;;;;;27.60;21.24;102324.97;4819345;29;20049;-83
2023/05/19 11:12:19;;;;;;;3.88;2.03;;;;;;;27.01;21.95;102325.16;4819798;29;20466;-83
2023/05/19 11:14:44;;;;;;;7.60;2.75;;;;;;;27.15;21.59;102319.94;4820155;29;20591;-83
2023/05/19 11:17:14;;;;;;;4.72;2.20;;;;;;;27.66;20.75;102310.03;4817093;29;20051;-83
2023/05/19 11:19:41;;;;;;;6.10;2.38;;;;;;;27.10;21.28;102306.09;4976762;24;20066;-83
2023/05/19 11:22:07;;;;;;;5.25;2.30;;;;;;;27.17;21.48;102319.69;4826309;29;20045;-82
2023/05/19 11:24:49;;;;;;;4.28;1.92;;;;;;;26.65;22.29;102316.75;4831283;29;20043;-82
2023/05/19 11:27:33;;;;;;;4.95;2.40;;;;;;;27.37;21.49;102316.91;4838668;29;20033;-83
2023/05/19 11:30:10;;;;;;;5.25;2.08;;;;;;;26.95;22.18;102315.22;4838092;29;20508;-82
2023/05/19 11:32:40;;;;;;;7.68;2.22;;;;;;;24.88;24.35;102330.28;4830566;29;20450;-83
2023/05/19 11:35:06;;;;;;;5.97;2.60;;;;;;;24.48;24.67;102314.91;4829255;29;20041;-83
2023/05/19 11:37:33;;;;;;;4.95;2.30;;;;;;;24.44;25.01;102309.09;4822140;29;20033;-83
2023/05/19 11:40:06;;;;;;;4.72;2.22;;;;;;;26.06;22.77;102315.03;4838017;29;20394;-83
2023/05/19 11:42:33;;;;;;;4.47;2.47;;;;;;;25.79;22.53;102313.22;4832981;29;20041;-83
2023/05/19 11:44:59;;;;;;;4.57;2.28;;;;;;;27.14;21.66;102300.88;4836483;29;20116;-83